sensor_id;sensor_type;location;lat;lon;timestamp;P1;durP1;ratioP1;P2;durP2;ratioP2
3967;SDS011;9221;42.646;23.380;2023-05-29T00:02:07;13.70;;;3.97;;
3967;SDS011;9221;42.646;23.380;2023-05-29T00:04:32;6.87;;;3.00;;
3967;SDS011;9221;42.646;23.380;2023-05-29T00:06:57;7.23;;;2.87;;
3967;SDS011;9221;42.646;23.380;2023-05-29T00:09:23;14.87;;;2.90;;
3967;SDS011;9221;42.646;23.380;2023-05-29T00:11:49;12.90;;;3.63;;
3967;SDS011;9221;42.646;23.380;2023-05-29T00:14:17;8.00;;;2.93;;
3967;SDS011;9221;42.646;23.380;2023-05-29T00:16:45;7.60;;;3.70;;
3967;SDS011;9221;42.646;23.380;2023-05-29T00:19:14;29.07;;;5.33;;
3967;SDS011;9221;42.646;23.380;2023-05-29T00:21:42;6.60;;;3.30;;
3967;SDS011;9221;42.646;23.380;2023-05-29T00:24:07;10.20;;;2.90;;
3967;SDS011;9221;42.646;23.380;2023-05-29T00:26:33;8.40;;;3.60;;
3967;SDS011;9221;42.646;23.380;2023-05-29T00:28:58;7.87;;;3.83;;
3967;SDS011;9221;42.646;23.380;2023-05-29T00:31:23;9.50;;;3.13;;
3967;SDS011;9221;42.646;23.380;2023-05-29T00:33:49;6.83;;;2.90;;
3967;SDS011;9221;42.646;23.380;2023-05-29T00:36:15;8.90;;;3.70;;
3967;SDS011;9221;42.646;23.380;2023-05-29T00:38:41;7.40;;;3.30;;
3967;SDS011;9221;42.646;23.380;2023-05-29T00:41:06;4.93;;;3.10;;
3967;SDS011;9221;42.646;23.380;2023-05-29T00:43:32;4.00;;;2.57;;
3967;SDS011;9221;42.646;23.380;2023-05-29T00:45:57;8.10;;;3.40;;
3967;SDS011;9221;42.646;23.380;2023-05-29T00:48:23;6.93;;;3.30;;
3967;SDS011;9221;42.646;23.380;2023-05-29T00:50:50;8.53;;;3.33;;
3967;SDS011;9221;42.646;23.380;2023-05-29T00:53:16;8.00;;;3.70;;
3967;SDS011;9221;42.646;23.380;2023-05-29T00:55:41;5.97;;;2.77;;
3967;SDS011;9221;42.646;23.380;2023-05-29T00:58:07;12.87;;;3.13;;
3967;SDS011;9221;42.646;23.380;2023-05-29T01:00:32;12.10;;;2.70;;
3967;SDS011;9221;42.646;23.380;2023-05-29T01:02:59;6.20;;;3.30;;
3967;SDS011;9221;42.646;23.380;2023-05-29T01:05:28;8.00;;;2.80;;
3967;SDS011;9221;42.646;23.380;2023-05-29T01:07:53;7.67;;;2.93;;
3967;SDS011;9221;42.646;23.380;2023-05-29T01:10:19;11.20;;;3.87;;
3967;SDS011;9221;42.646;23.380;2023-05-29T01:18:12;11.97;;;4.80;;
3967;SDS011;9221;42.646;23.380;2023-05-29T01:20:53;7.50;;;3.70;;
3967;SDS011;9221;42.646;23.380;2023-05-29T01:29:12;6.30;;;3.17;;
3967;SDS011;9221;42.646;23.380;2023-05-29T01:31:40;7.40;;;3.00;;
3967;SDS011;9221;42.646;23.380;2023-05-29T01:34:07;7.33;;;3.73;;
3967;SDS011;9221;42.646;23.380;2023-05-29T01:36:33;7.53;;;3.83;;
3967;SDS011;9221;42.646;23.380;2023-05-29T01:38:58;9.63;;;3.57;;
3967;SDS011;9221;42.646;23.380;2023-05-29T01:41:25;8.63;;;3.70;;
3967;SDS011;9221;42.646;23.380;2023-05-29T01:43:51;5.83;;;3.33;;
3967;SDS011;9221;42.646;23.380;2023-05-29T01:46:18;7.37;;;3.40;;
3967;SDS011;9221;42.646;23.380;2023-05-29T01:48:45;7.70;;;3.30;;
3967;SDS011;9221;42.646;23.380;2023-05-29T01:51:11;10.27;;;3.50;;
3967;SDS011;9221;42.646;23.380;2023-05-29T01:53:40;6.57;;;3.30;;
3967;SDS011;9221;42.646;23.380;2023-05-29T01:56:07;10.20;;;3.17;;
3967;SDS011;9221;42.646;23.380;2023-05-29T01:58:37;22.03;;;4.20;;
3967;SDS011;9221;42.646;23.380;2023-05-29T02:01:03;9.60;;;4.00;;
3967;SDS011;9221;42.646;23.380;2023-05-29T02:03:31;6.17;;;2.90;;
3967;SDS011;9221;42.646;23.380;2023-05-29T02:05:57;7.03;;;3.63;;
3967;SDS011;9221;42.646;23.380;2023-05-29T02:08:23;7.43;;;2.97;;
3967;SDS011;9221;42.646;23.380;2023-05-29T02:10:49;5.80;;;3.30;;
3967;SDS011;9221;42.646;23.380;2023-05-29T02:13:14;11.03;;;3.97;;
3967;SDS011;9221;42.646;23.380;2023-05-29T02:15:40;8.57;;;3.47;;
3967;SDS011;9221;42.646;23.380;2023-05-29T02:18:09;9.60;;;4.40;;
3967;SDS011;9221;42.646;23.380;2023-05-29T02:20:39;9.77;;;3.50;;
3967;SDS011;9221;42.646;23.380;2023-05-29T02:23:05;17.20;;;4.53;;
3967;SDS011;9221;42.646;23.380;2023-05-29T02:25:31;17.60;;;4.37;;
3967;SDS011;9221;42.646;23.380;2023-05-29T02:27:56;5.90;;;3.80;;
3967;SDS011;9221;42.646;23.380;2023-05-29T02:30:22;17.27;;;4.47;;
3967;SDS011;9221;42.646;23.380;2023-05-29T02:32:47;7.47;;;3.87;;
3967;SDS011;9221;42.646;23.380;2023-05-29T02:35:12;10.90;;;4.90;;
3967;SDS011;9221;42.646;23.380;2023-05-29T02:37:42;6.93;;;3.60;;
3967;SDS011;9221;42.646;23.380;2023-05-29T02:40:07;7.63;;;3.93;;
3967;SDS011;9221;42.646;23.380;2023-05-29T02:42:33;7.47;;;4.23;;
3967;SDS011;9221;42.646;23.380;2023-05-29T02:44:59;9.80;;;3.90;;
3967;SDS011;9221;42.646;23.380;2023-05-29T02:47:24;8.70;;;3.50;;
3967;SDS011;9221;42.646;23.380;2023-05-29T02:49:50;7.80;;;4.10;;
3967;SDS011;9221;42.646;23.380;2023-05-29T02:52:15;8.13;;;3.87;;
3967;SDS011;9221;42.646;23.380;2023-05-29T02:54:41;9.57;;;4.20;;
3967;SDS011;9221;42.646;23.380;2023-05-29T02:57:06;8.87;;;4.30;;
3967;SDS011;9221;42.646;23.380;2023-05-29T02:59:31;8.10;;;3.60;;
3967;SDS011;9221;42.646;23.380;2023-05-29T03:01:57;6.43;;;3.70;;
3967;SDS011;9221;42.646;23.380;2023-05-29T03:04:22;11.73;;;4.73;;
3967;SDS011;9221;42.646;23.380;2023-05-29T03:06:48;12.83;;;5.03;;
3967;SDS011;9221;42.646;23.380;2023-05-29T03:09:13;9.30;;;4.17;;
3967;SDS011;9221;42.646;23.380;2023-05-29T03:11:40;10.40;;;4.50;;
3967;SDS011;9221;42.646;23.380;2023-05-29T03:14:06;11.63;;;4.80;;
3967;SDS011;9221;42.646;23.380;2023-05-29T03:16:31;12.20;;;4.20;;
3967;SDS011;9221;42.646;23.380;2023-05-29T03:18:57;13.87;;;4.83;;
3967;SDS011;9221;42.646;23.380;2023-05-29T03:21:22;12.40;;;4.50;;
3967;SDS011;9221;42.646;23.380;2023-05-29T03:23:48;13.27;;;4.93;;
3967;SDS011;9221;42.646;23.380;2023-05-29T03:26:13;11.17;;;4.97;;
3967;SDS011;9221;42.646;23.380;2023-05-29T03:28:39;17.03;;;4.83;;
3967;SDS011;9221;42.646;23.380;2023-05-29T03:31:05;10.37;;;4.80;;
3967;SDS011;9221;42.646;23.380;2023-05-29T03:33:30;12.70;;;4.80;;
3967;SDS011;9221;42.646;23.380;2023-05-29T03:35:56;8.00;;;4.00;;
3967;SDS011;9221;42.646;23.380;2023-05-29T03:38:21;14.63;;;5.37;;
3967;SDS011;9221;42.646;23.380;2023-05-29T03:40:48;15.57;;;4.90;;
3967;SDS011;9221;42.646;23.380;2023-05-29T03:43:14;10.70;;;5.30;;
3967;SDS011;9221;42.646;23.380;2023-05-29T03:45:39;11.00;;;4.43;;
3967;SDS011;9221;42.646;23.380;2023-05-29T03:48:05;13.40;;;4.60;;
3967;SDS011;9221;42.646;23.380;2023-05-29T03:50:30;12.00;;;4.37;;
3967;SDS011;9221;42.646;23.380;2023-05-29T03:52:56;14.43;;;4.67;;
3967;SDS011;9221;42.646;23.380;2023-05-29T03:55:21;25.83;;;5.47;;
3967;SDS011;9221;42.646;23.380;2023-05-29T03:57:46;13.97;;;5.13;;
3967;SDS011;9221;42.646;23.380;2023-05-29T04:00:12;14.63;;;4.67;;
3967;SDS011;9221;42.646;23.380;2023-05-29T04:02:38;12.77;;;4.30;;
3967;SDS011;9221;42.646;23.380;2023-05-29T04:05:04;8.00;;;3.93;;
3967;SDS011;9221;42.646;23.380;2023-05-29T04:07:31;11.90;;;4.93;;
3967;SDS011;9221;42.646;23.380;2023-05-29T04:09:57;9.17;;;4.67;;
3967;SDS011;9221;42.646;23.380;2023-05-29T04:12:22;11.20;;;4.70;;
3967;SDS011;9221;42.646;23.380;2023-05-29T04:14:48;9.50;;;4.10;;
3967;SDS011;9221;42.646;23.380;2023-05-29T04:17:13;26.73;;;5.00;;
3967;SDS011;9221;42.646;23.380;2023-05-29T04:19:38;11.33;;;4.50;;
3967;SDS011;9221;42.646;23.380;2023-05-29T04:22:04;8.33;;;3.80;;
3967;SDS011;9221;42.646;23.380;2023-05-29T04:24:29;13.63;;;4.23;;
3967;SDS011;9221;42.646;23.380;2023-05-29T04:26:56;8.33;;;3.70;;
3967;SDS011;9221;42.646;23.380;2023-05-29T04:29:22;17.53;;;4.53;;
3967;SDS011;9221;42.646;23.380;2023-05-29T04:31:48;9.73;;;3.67;;
3967;SDS011;9221;42.646;23.380;2023-05-29T04:34:13;8.03;;;3.67;;
3967;SDS011;9221;42.646;23.380;2023-05-29T04:36:41;10.53;;;3.80;;
3967;SDS011;9221;42.646;23.380;2023-05-29T04:39:08;9.93;;;4.57;;
3967;SDS011;9221;42.646;23.380;2023-05-29T04:41:34;11.63;;;3.83;;
3967;SDS011;9221;42.646;23.380;2023-05-29T04:44:00;20.70;;;4.47;;
3967;SDS011;9221;42.646;23.380;2023-05-29T04:46:26;8.03;;;3.90;;
3967;SDS011;9221;42.646;23.380;2023-05-29T04:48:52;15.53;;;5.03;;
3967;SDS011;9221;42.646;23.380;2023-05-29T04:51:22;9.27;;;3.77;;
3967;SDS011;9221;42.646;23.380;2023-05-29T04:53:48;11.03;;;3.80;;
3967;SDS011;9221;42.646;23.380;2023-05-29T04:56:15;14.20;;;3.63;;
3967;SDS011;9221;42.646;23.380;2023-05-29T04:58:41;6.33;;;3.37;;
3967;SDS011;9221;42.646;23.380;2023-05-29T05:01:07;11.63;;;4.00;;
3967;SDS011;9221;42.646;23.380;2023-05-29T05:03:42;10.40;;;3.67;;
3967;SDS011;9221;42.646;23.380;2023-05-29T05:06:07;7.60;;;3.27;;
3967;SDS011;9221;42.646;23.380;2023-05-29T05:08:33;9.33;;;4.33;;
3967;SDS011;9221;42.646;23.380;2023-05-29T05:10:59;12.70;;;3.20;;
3967;SDS011;9221;42.646;23.380;2023-05-29T05:13:25;6.57;;;3.27;;
3967;SDS011;9221;42.646;23.380;2023-05-29T05:15:51;9.20;;;3.00;;
3967;SDS011;9221;42.646;23.380;2023-05-29T05:18:17;8.43;;;2.90;;
3967;SDS011;9221;42.646;23.380;2023-05-29T05:20:42;3.67;;;2.50;;
3967;SDS011;9221;42.646;23.380;2023-05-29T05:23:08;9.73;;;3.37;;
3967;SDS011;9221;42.646;23.380;2023-05-29T05:25:34;5.50;;;3.00;;
3967;SDS011;9221;42.646;23.380;2023-05-29T05:28:00;7.87;;;3.10;;
3967;SDS011;9221;42.646;23.380;2023-05-29T05:30:28;8.30;;;3.60;;
3967;SDS011;9221;42.646;23.380;2023-05-29T05:32:53;13.13;;;4.03;;
3967;SDS011;9221;42.646;23.380;2023-05-29T05:35:18;8.17;;;3.57;;
3967;SDS011;9221;42.646;23.380;2023-05-29T05:37:44;20.73;;;3.80;;
3967;SDS011;9221;42.646;23.380;2023-05-29T05:40:09;10.83;;;3.70;;
3967;SDS011;9221;42.646;23.380;2023-05-29T05:42:35;12.50;;;3.10;;
3967;SDS011;9221;42.646;23.380;2023-05-29T05:45:01;16.63;;;4.37;;
3967;SDS011;9221;42.646;23.380;2023-05-29T05:47:26;9.30;;;4.40;;
3967;SDS011;9221;42.646;23.380;2023-05-29T05:49:54;18.73;;;5.60;;
3967;SDS011;9221;42.646;23.380;2023-05-29T05:52:20;15.97;;;5.10;;
3967;SDS011;9221;42.646;23.380;2023-05-29T05:54:45;9.33;;;3.70;;
3967;SDS011;9221;42.646;23.380;2023-05-29T05:57:11;14.00;;;3.93;;
3967;SDS011;9221;42.646;23.380;2023-05-29T05:59:36;19.50;;;4.27;;
3967;SDS011;9221;42.646;23.380;2023-05-29T06:02:02;9.80;;;3.67;;
3967;SDS011;9221;42.646;23.380;2023-05-29T06:04:28;7.70;;;3.57;;
3967;SDS011;9221;42.646;23.380;2023-05-29T06:06:54;20.10;;;4.23;;
3967;SDS011;9221;42.646;23.380;2023-05-29T06:09:20;7.10;;;3.53;;
3967;SDS011;9221;42.646;23.380;2023-05-29T06:11:46;4.77;;;2.30;;
3967;SDS011;9221;42.646;23.380;2023-05-29T06:14:12;15.00;;;3.10;;
3967;SDS011;9221;42.646;23.380;2023-05-29T06:16:38;6.23;;;2.97;;
3967;SDS011;9221;42.646;23.380;2023-05-29T06:19:03;7.63;;;2.90;;
3967;SDS011;9221;42.646;23.380;2023-05-29T06:21:29;11.83;;;2.77;;
3967;SDS011;9221;42.646;23.380;2023-05-29T06:23:54;4.57;;;2.47;;
3967;SDS011;9221;42.646;23.380;2023-05-29T06:26:20;10.93;;;2.60;;
3967;SDS011;9221;42.646;23.380;2023-05-29T06:28:46;4.60;;;2.30;;
3967;SDS011;9221;42.646;23.380;2023-05-29T06:31:11;5.30;;;2.80;;
3967;SDS011;9221;42.646;23.380;2023-05-29T06:33:37;6.70;;;2.50;;
3967;SDS011;9221;42.646;23.380;2023-05-29T06:36:02;5.17;;;1.93;;
3967;SDS011;9221;42.646;23.380;2023-05-29T06:38:28;4.80;;;1.93;;
3967;SDS011;9221;42.646;23.380;2023-05-29T06:40:53;3.63;;;1.50;;
3967;SDS011;9221;42.646;23.380;2023-05-29T06:43:19;3.90;;;1.60;;
3967;SDS011;9221;42.646;23.380;2023-05-29T06:45:44;9.50;;;2.40;;
3967;SDS011;9221;42.646;23.380;2023-05-29T06:48:10;2.40;;;1.53;;
3967;SDS011;9221;42.646;23.380;2023-05-29T06:50:35;3.40;;;1.47;;
3967;SDS011;9221;42.646;23.380;2023-05-29T06:53:01;12.43;;;2.23;;
3967;SDS011;9221;42.646;23.380;2023-05-29T06:55:26;5.13;;;1.90;;
3967;SDS011;9221;42.646;23.380;2023-05-29T06:57:51;2.83;;;1.87;;
3967;SDS011;9221;42.646;23.380;2023-05-29T07:00:17;4.80;;;1.90;;
3967;SDS011;9221;42.646;23.380;2023-05-29T07:02:43;5.00;;;1.60;;
3967;SDS011;9221;42.646;23.380;2023-05-29T07:05:08;3.00;;;1.67;;
3967;SDS011;9221;42.646;23.380;2023-05-29T07:07:33;4.83;;;2.20;;
3967;SDS011;9221;42.646;23.380;2023-05-29T07:09:59;4.73;;;1.43;;
3967;SDS011;9221;42.646;23.380;2023-05-29T07:12:24;4.03;;;1.53;;
3967;SDS011;9221;42.646;23.380;2023-05-29T07:14:50;5.40;;;1.00;;
3967;SDS011;9221;42.646;23.380;2023-05-29T07:17:15;2.83;;;1.40;;
3967;SDS011;9221;42.646;23.380;2023-05-29T07:19:41;4.63;;;1.50;;
3967;SDS011;9221;42.646;23.380;2023-05-29T07:22:06;7.50;;;1.63;;
3967;SDS011;9221;42.646;23.380;2023-05-29T07:24:32;5.50;;;1.80;;
3967;SDS011;9221;42.646;23.380;2023-05-29T07:26:57;4.80;;;1.90;;
3967;SDS011;9221;42.646;23.380;2023-05-29T07:29:23;3.83;;;1.93;;
3967;SDS011;9221;42.646;23.380;2023-05-29T07:31:49;3.17;;;1.20;;
3967;SDS011;9221;42.646;23.380;2023-05-29T07:34:17;5.50;;;2.07;;
3967;SDS011;9221;42.646;23.380;2023-05-29T07:37:00;7.43;;;2.23;;
3967;SDS011;9221;42.646;23.380;2023-05-29T07:39:26;7.70;;;2.00;;
3967;SDS011;9221;42.646;23.380;2023-05-29T07:41:52;5.93;;;2.03;;
3967;SDS011;9221;42.646;23.380;2023-05-29T07:44:17;5.23;;;1.60;;
3967;SDS011;9221;42.646;23.380;2023-05-29T07:46:43;4.83;;;1.77;;
3967;SDS011;9221;42.646;23.380;2023-05-29T07:49:08;6.17;;;2.60;;
3967;SDS011;9221;42.646;23.380;2023-05-29T07:51:34;5.43;;;2.47;;
3967;SDS011;9221;42.646;23.380;2023-05-29T07:53:59;6.20;;;1.90;;
3967;SDS011;9221;42.646;23.380;2023-05-29T07:56:25;6.40;;;2.07;;
3967;SDS011;9221;42.646;23.380;2023-05-29T07:58:50;5.10;;;2.17;;
3967;SDS011;9221;42.646;23.380;2023-05-29T08:01:18;3.43;;;1.40;;
3967;SDS011;9221;42.646;23.380;2023-05-29T08:03:44;2.87;;;1.40;;
3967;SDS011;9221;42.646;23.380;2023-05-29T08:06:09;3.60;;;1.70;;
3967;SDS011;9221;42.646;23.380;2023-05-29T08:08:35;2.53;;;2.03;;
3967;SDS011;9221;42.646;23.380;2023-05-29T08:11:00;4.63;;;1.93;;
3967;SDS011;9221;42.646;23.380;2023-05-29T08:13:26;5.30;;;1.70;;
3967;SDS011;9221;42.646;23.380;2023-05-29T08:15:52;3.67;;;2.00;;
3967;SDS011;9221;42.646;23.380;2023-05-29T08:18:18;6.23;;;2.20;;
3967;SDS011;9221;42.646;23.380;2023-05-29T08:20:43;3.53;;;1.60;;
3967;SDS011;9221;42.646;23.380;2023-05-29T08:23:09;4.40;;;2.10;;
3967;SDS011;9221;42.646;23.380;2023-05-29T08:25:35;8.70;;;2.00;;
3967;SDS011;9221;42.646;23.380;2023-05-29T08:28:00;6.50;;;2.50;;
3967;SDS011;9221;42.646;23.380;2023-05-29T08:30:26;4.97;;;2.00;;
3967;SDS011;9221;42.646;23.380;2023-05-29T08:32:51;2.63;;;1.73;;
3967;SDS011;9221;42.646;23.380;2023-05-29T08:35:17;3.97;;;1.90;;
3967;SDS011;9221;42.646;23.380;2023-05-29T08:37:42;5.87;;;2.47;;
3967;SDS011;9221;42.646;23.380;2023-05-29T08:40:08;4.73;;;1.40;;
3967;SDS011;9221;42.646;23.380;2023-05-29T08:42:36;6.10;;;2.17;;
3967;SDS011;9221;42.646;23.380;2023-05-29T08:45:13;9.70;;;2.57;;
3967;SDS011;9221;42.646;23.380;2023-05-29T08:47:39;9.03;;;1.50;;
3967;SDS011;9221;42.646;23.380;2023-05-29T08:50:06;2.60;;;1.77;;
3967;SDS011;9221;42.646;23.380;2023-05-29T08:52:33;4.87;;;1.83;;
3967;SDS011;9221;42.646;23.380;2023-05-29T08:55:03;10.93;;;1.87;;
3967;SDS011;9221;42.646;23.380;2023-05-29T08:57:29;4.50;;;1.67;;
3967;SDS011;9221;42.646;23.380;2023-05-29T08:59:55;5.77;;;1.70;;
3967;SDS011;9221;42.646;23.380;2023-05-29T09:02:21;2.83;;;1.50;;
3967;SDS011;9221;42.646;23.380;2023-05-29T09:04:47;4.87;;;1.77;;
3967;SDS011;9221;42.646;23.380;2023-05-29T09:07:14;4.00;;;2.17;;
3967;SDS011;9221;42.646;23.380;2023-05-29T09:09:40;5.47;;;2.80;;
3967;SDS011;9221;42.646;23.380;2023-05-29T09:12:05;2.40;;;1.67;;
3967;SDS011;9221;42.646;23.380;2023-05-29T09:14:36;3.57;;;2.00;;
3967;SDS011;9221;42.646;23.380;2023-05-29T09:17:02;12.70;;;1.93;;
3967;SDS011;9221;42.646;23.380;2023-05-29T09:19:29;6.40;;;2.10;;
3967;SDS011;9221;42.646;23.380;2023-05-29T09:22:05;3.70;;;1.90;;
3967;SDS011;9221;42.646;23.380;2023-05-29T09:24:33;6.20;;;2.33;;
3967;SDS011;9221;42.646;23.380;2023-05-29T09:26:59;3.40;;;1.60;;
3967;SDS011;9221;42.646;23.380;2023-05-29T09:29:26;5.30;;;2.10;;
3967;SDS011;9221;42.646;23.380;2023-05-29T09:31:52;10.60;;;2.23;;
3967;SDS011;9221;42.646;23.380;2023-05-29T09:34:18;8.00;;;2.20;;
3967;SDS011;9221;42.646;23.380;2023-05-29T09:36:43;4.00;;;1.87;;
3967;SDS011;9221;42.646;23.380;2023-05-29T09:39:08;3.03;;;1.73;;
3967;SDS011;9221;42.646;23.380;2023-05-29T09:41:42;4.37;;;2.30;;
3967;SDS011;9221;42.646;23.380;2023-05-29T09:44:10;13.53;;;2.50;;
3967;SDS011;9221;42.646;23.380;2023-05-29T09:46:38;6.60;;;3.23;;
3967;SDS011;9221;42.646;23.380;2023-05-29T09:49:08;16.50;;;2.53;;
3967;SDS011;9221;42.646;23.380;2023-05-29T09:51:37;3.43;;;2.07;;
3967;SDS011;9221;42.646;23.380;2023-05-29T09:54:26;3.70;;;2.10;;
3967;SDS011;9221;42.646;23.380;2023-05-29T09:56:53;6.30;;;1.97;;
3967;SDS011;9221;42.646;23.380;2023-05-29T09:59:20;5.87;;;1.70;;
3967;SDS011;9221;42.646;23.380;2023-05-29T10:01:48;3.63;;;2.00;;
3967;SDS011;9221;42.646;23.380;2023-05-29T10:04:20;7.73;;;2.40;;
3967;SDS011;9221;42.646;23.380;2023-05-29T10:06:46;3.83;;;1.77;;
3967;SDS011;9221;42.646;23.380;2023-05-29T10:09:14;5.07;;;2.00;;
3967;SDS011;9221;42.646;23.380;2023-05-29T10:11:43;3.40;;;2.30;;
3967;SDS011;9221;42.646;23.380;2023-05-29T10:14:11;5.30;;;1.80;;
3967;SDS011;9221;42.646;23.380;2023-05-29T10:16:43;2.67;;;1.87;;
3967;SDS011;9221;42.646;23.380;2023-05-29T10:19:12;4.10;;;1.57;;
3967;SDS011;9221;42.646;23.380;2023-05-29T10:21:41;2.53;;;1.80;;
3967;SDS011;9221;42.646;23.380;2023-05-29T10:24:09;11.63;;;2.17;;
3967;SDS011;9221;42.646;23.380;2023-05-29T10:26:36;3.93;;;1.93;;
3967;SDS011;9221;42.646;23.380;2023-05-29T10:31:54;3.20;;;1.90;;
3967;SDS011;9221;42.646;23.380;2023-05-29T10:37:09;5.13;;;2.07;;
3967;SDS011;9221;42.646;23.380;2023-05-29T10:39:46;5.30;;;1.93;;
3967;SDS011;9221;42.646;23.380;2023-05-29T10:45:10;8.20;;;2.63;;
3967;SDS011;9221;42.646;23.380;2023-05-29T10:47:37;7.17;;;2.17;;
3967;SDS011;9221;42.646;23.380;2023-05-29T10:50:04;9.87;;;2.43;;
3967;SDS011;9221;42.646;23.380;2023-05-29T10:52:30;5.33;;;2.43;;
3967;SDS011;9221;42.646;23.380;2023-05-29T10:54:57;3.47;;;1.90;;
3967;SDS011;9221;42.646;23.380;2023-05-29T10:57:22;7.43;;;2.80;;
3967;SDS011;9221;42.646;23.380;2023-05-29T10:59:57;4.00;;;2.47;;
3967;SDS011;9221;42.646;23.380;2023-05-29T11:02:23;5.80;;;2.40;;
3967;SDS011;9221;42.646;23.380;2023-05-29T11:07:57;4.67;;;1.93;;
3967;SDS011;9221;42.646;23.380;2023-05-29T11:13:09;3.63;;;2.07;;
3967;SDS011;9221;42.646;23.380;2023-05-29T11:15:35;7.53;;;2.93;;
3967;SDS011;9221;42.646;23.380;2023-05-29T11:18:05;5.37;;;2.20;;
3967;SDS011;9221;42.646;23.380;2023-05-29T11:20:49;7.67;;;2.37;;
3967;SDS011;9221;42.646;23.380;2023-05-29T11:23:21;7.07;;;2.50;;
3967;SDS011;9221;42.646;23.380;2023-05-29T11:25:50;3.90;;;1.93;;
3967;SDS011;9221;42.646;23.380;2023-05-29T11:28:16;4.43;;;1.87;;
3967;SDS011;9221;42.646;23.380;2023-05-29T11:30:45;4.43;;;2.00;;
3967;SDS011;9221;42.646;23.380;2023-05-29T11:33:14;5.37;;;2.67;;
3967;SDS011;9221;42.646;23.380;2023-05-29T11:35:49;3.07;;;1.93;;
3967;SDS011;9221;42.646;23.380;2023-05-29T11:38:20;7.37;;;2.37;;
3967;SDS011;9221;42.646;23.380;2023-05-29T11:40:45;5.70;;;2.30;;
3967;SDS011;9221;42.646;23.380;2023-05-29T11:43:12;9.07;;;2.40;;
3967;SDS011;9221;42.646;23.380;2023-05-29T11:45:38;5.77;;;2.53;;
3967;SDS011;9221;42.646;23.380;2023-05-29T11:48:03;7.27;;;2.50;;
3967;SDS011;9221;42.646;23.380;2023-05-29T11:50:29;4.97;;;1.97;;
3967;SDS011;9221;42.646;23.380;2023-05-29T11:52:57;9.57;;;2.70;;
3967;SDS011;9221;42.646;23.380;2023-05-29T11:55:23;6.00;;;2.50;;
3967;SDS011;9221;42.646;23.380;2023-05-29T11:57:50;6.77;;;2.80;;
3967;SDS011;9221;42.646;23.380;2023-05-29T12:00:20;8.13;;;2.90;;
3967;SDS011;9221;42.646;23.380;2023-05-29T12:02:47;7.83;;;2.10;;
3967;SDS011;9221;42.646;23.380;2023-05-29T12:05:13;5.30;;;2.40;;
3967;SDS011;9221;42.646;23.380;2023-05-29T12:07:47;5.13;;;2.70;;
3967;SDS011;9221;42.646;23.380;2023-05-29T12:10:18;3.77;;;2.40;;
3967;SDS011;9221;42.646;23.380;2023-05-29T12:15:17;4.23;;;2.50;;
3967;SDS011;9221;42.646;23.380;2023-05-29T12:17:44;4.87;;;2.70;;
3967;SDS011;9221;42.646;23.380;2023-05-29T12:20:10;3.53;;;2.33;;
3967;SDS011;9221;42.646;23.380;2023-05-29T12:22:37;14.30;;;2.63;;
3967;SDS011;9221;42.646;23.380;2023-05-29T12:25:07;8.17;;;3.17;;
3967;SDS011;9221;42.646;23.380;2023-05-29T12:27:34;3.93;;;2.30;;
3967;SDS011;9221;42.646;23.380;2023-05-29T12:30:06;7.87;;;2.10;;
3967;SDS011;9221;42.646;23.380;2023-05-29T12:32:39;9.03;;;2.13;;
3967;SDS011;9221;42.646;23.380;2023-05-29T12:35:12;4.70;;;2.60;;
3967;SDS011;9221;42.646;23.380;2023-05-29T12:40:16;7.33;;;2.60;;
3967;SDS011;9221;42.646;23.380;2023-05-29T12:42:43;6.20;;;2.90;;
3967;SDS011;9221;42.646;23.380;2023-05-29T12:45:08;7.70;;;3.40;;
3967;SDS011;9221;42.646;23.380;2023-05-29T12:47:35;10.30;;;2.60;;
3967;SDS011;9221;42.646;23.380;2023-05-29T12:52:46;6.20;;;2.13;;
3967;SDS011;9221;42.646;23.380;2023-05-29T12:55:11;5.80;;;1.50;;
3967;SDS011;9221;42.646;23.380;2023-05-29T12:57:37;4.10;;;2.13;;
3967;SDS011;9221;42.646;23.380;2023-05-29T13:00:02;11.03;;;2.03;;
3967;SDS011;9221;42.646;23.380;2023-05-29T13:02:28;5.10;;;2.03;;
3967;SDS011;9221;42.646;23.380;2023-05-29T13:04:54;3.60;;;2.40;;
3967;SDS011;9221;42.646;23.380;2023-05-29T13:07:20;3.67;;;1.83;;
3967;SDS011;9221;42.646;23.380;2023-05-29T13:09:45;9.63;;;2.20;;
3967;SDS011;9221;42.646;23.380;2023-05-29T13:12:11;2.37;;;1.90;;
3967;SDS011;9221;42.646;23.380;2023-05-29T13:14:37;4.47;;;2.37;;
3967;SDS011;9221;42.646;23.380;2023-05-29T13:17:02;13.30;;;3.30;;
3967;SDS011;9221;42.646;23.380;2023-05-29T13:19:29;5.10;;;2.80;;
3967;SDS011;9221;42.646;23.380;2023-05-29T13:21:54;10.80;;;3.53;;
3967;SDS011;9221;42.646;23.380;2023-05-29T13:24:20;6.97;;;3.40;;
3967;SDS011;9221;42.646;23.380;2023-05-29T13:26:46;8.20;;;2.70;;
3967;SDS011;9221;42.646;23.380;2023-05-29T13:29:11;3.90;;;2.63;;
3967;SDS011;9221;42.646;23.380;2023-05-29T13:31:37;5.77;;;2.87;;
3967;SDS011;9221;42.646;23.380;2023-05-29T13:34:02;5.07;;;2.77;;
3967;SDS011;9221;42.646;23.380;2023-05-29T13:36:27;4.60;;;2.97;;
3967;SDS011;9221;42.646;23.380;2023-05-29T13:38:53;6.43;;;2.70;;
3967;SDS011;9221;42.646;23.380;2023-05-29T13:41:18;8.30;;;3.10;;
3967;SDS011;9221;42.646;23.380;2023-05-29T13:43:43;8.87;;;3.77;;
3967;SDS011;9221;42.646;23.380;2023-05-29T13:46:09;9.27;;;3.07;;
3967;SDS011;9221;42.646;23.380;2023-05-29T13:48:35;5.40;;;3.10;;
3967;SDS011;9221;42.646;23.380;2023-05-29T13:51:00;13.03;;;3.50;;
3967;SDS011;9221;42.646;23.380;2023-05-29T13:53:25;5.70;;;2.87;;
3967;SDS011;9221;42.646;23.380;2023-05-29T13:55:51;8.83;;;3.60;;
3967;SDS011;9221;42.646;23.380;2023-05-29T13:58:16;6.53;;;2.83;;
3967;SDS011;9221;42.646;23.380;2023-05-29T14:00:41;7.40;;;3.10;;
3967;SDS011;9221;42.646;23.380;2023-05-29T14:03:07;6.93;;;3.37;;
3967;SDS011;9221;42.646;23.380;2023-05-29T14:05:33;6.57;;;2.80;;
3967;SDS011;9221;42.646;23.380;2023-05-29T14:07:58;6.80;;;3.27;;
3967;SDS011;9221;42.646;23.380;2023-05-29T14:10:23;9.83;;;2.90;;
3967;SDS011;9221;42.646;23.380;2023-05-29T14:12:49;6.27;;;3.40;;
3967;SDS011;9221;42.646;23.380;2023-05-29T14:15:15;4.80;;;2.77;;
3967;SDS011;9221;42.646;23.380;2023-05-29T14:17:40;6.07;;;2.50;;
3967;SDS011;9221;42.646;23.380;2023-05-29T14:20:05;4.33;;;2.87;;
3967;SDS011;9221;42.646;23.380;2023-05-29T14:22:33;25.80;;;3.20;;
3967;SDS011;9221;42.646;23.380;2023-05-29T14:24:59;8.70;;;1.53;;
3967;SDS011;9221;42.646;23.380;2023-05-29T14:27:25;3.90;;;2.10;;
3967;SDS011;9221;42.646;23.380;2023-05-29T14:29:51;4.10;;;1.40;;
3967;SDS011;9221;42.646;23.380;2023-05-29T14:32:16;2.77;;;1.07;;
3967;SDS011;9221;42.646;23.380;2023-05-29T14:34:42;1.10;;;1.00;;
3967;SDS011;9221;42.646;23.380;2023-05-29T14:37:07;3.50;;;1.20;;
3967;SDS011;9221;42.646;23.380;2023-05-29T14:39:32;16.53;;;1.37;;
3967;SDS011;9221;42.646;23.380;2023-05-29T14:41:58;3.80;;;1.63;;
3967;SDS011;9221;42.646;23.380;2023-05-29T14:44:23;9.43;;;1.30;;
3967;SDS011;9221;42.646;23.380;2023-05-29T14:46:49;11.03;;;1.00;;
3967;SDS011;9221;42.646;23.380;2023-05-29T14:49:14;7.67;;;1.57;;
3967;SDS011;9221;42.646;23.380;2023-05-29T14:51:39;19.53;;;1.50;;
3967;SDS011;9221;42.646;23.380;2023-05-29T14:54:07;2.10;;;1.60;;
3967;SDS011;9221;42.646;23.380;2023-05-29T14:56:34;5.60;;;1.57;;
3967;SDS011;9221;42.646;23.380;2023-05-29T14:58:59;5.37;;;2.23;;
3967;SDS011;9221;42.646;23.380;2023-05-29T15:01:25;5.10;;;2.10;;
3967;SDS011;9221;42.646;23.380;2023-05-29T15:03:50;3.27;;;2.20;;
3967;SDS011;9221;42.646;23.380;2023-05-29T15:06:16;2.40;;;1.80;;
3967;SDS011;9221;42.646;23.380;2023-05-29T15:08:41;1.50;;;1.10;;
3967;SDS011;9221;42.646;23.380;2023-05-29T15:11:08;2.50;;;1.47;;
3967;SDS011;9221;42.646;23.380;2023-05-29T15:13:34;9.63;;;2.07;;
3967;SDS011;9221;42.646;23.380;2023-05-29T15:16:00;2.70;;;1.40;;
3967;SDS011;9221;42.646;23.380;2023-05-29T15:18:27;6.90;;;1.70;;
3967;SDS011;9221;42.646;23.380;2023-05-29T15:20:53;5.43;;;1.77;;
3967;SDS011;9221;42.646;23.380;2023-05-29T15:23:19;12.83;;;2.10;;
3967;SDS011;9221;42.646;23.380;2023-05-29T15:25:47;7.53;;;1.83;;
3967;SDS011;9221;42.646;23.380;2023-05-29T15:28:14;3.77;;;1.60;;